Alpine Persefone — A8MS7 — position and weather

sailwx.info

Track history (hours):
 
Tides and Currents Weather Stations Pressure Air Temp Water Temp Dewpoint Dewpoint Depression Visibility Wind Speed Wind Dir Waves Ship Positions

Alpine Persefone

Last reported at 2015-May-28 08:22 UTC. Time now 2015-May-30 00:25 UTC.
Position N 27°34' W 015°16'.

Length 226 m; draft 14 m.

Type: Tanker. MMSI: 636013411.

Date/timePositionNaut miles runAvg speedWind from/ knotsBaromVisibWave heightAir tempDewpointWater temp
2015-May-28 08:22N 27°34' W 015°16'1011.8
2015-May-28 07:33N 27°43' W 015°11'1211.7
2015-May-28 06:33N 27°53' W 015°06'1211.7
2015-May-28 05:33N 28°04' W 015°02'1212.0
2015-May-28 04:33N 28°16' W 014°57'1212.1
2015-May-28 03:33N 28°27' W 014°52'1212.0
2015-May-28 02:33N 28°39' W 014°49'  
2015-May-25 18:14N 39°21' W 011°47'3011.4
2015-May-25 15:33N 39°51' W 011°38'1211.6
2015-May-25 14:33N 40°02' W 011°35'  
2015-May-23 01:04N 49°59' W 002°53'610.9
2015-May-23 00:33N 50°01' W 002°44'1010.1
2015-May-22 23:31N 50°04' W 002°29'19 8.9
2015-May-22 21:26N 50°09' W 002°01'1110.0
2015-May-22 20:18N 50°12' W 001°44'1211.7
2015-May-22 19:18N 50°15' W 001°26'1213.3
2015-May-22 18:23N 50°18' W 001°08'1514.3
2015-May-22 17:20N 50°22' W 000°45'3612.8
2015-May-22 14:32N 50°32' E 000°09'1111.1
2015-May-22 13:33N 50°35' E 000°26'1010.1
2015-May-22 12:33N 50°39' E 000°40'1010.3
2015-May-22 11:33N 50°45' E 000°53'1511.7
2015-May-22 10:14N 50°55' E 001°12'913.6
2015-May-22 09:33N 51°02' E 001°22'1413.9
2015-May-22 08:33N 51°10' E 001°39'1212.4
2015-May-22 07:33N 51°19' E 001°53'9 9.0
2015-May-22 06:33N 51°23' E 002°06'1110.4
2015-May-22 05:32N 51°22' E 002°23'1010.0
2015-May-22 04:33N 51°23' E 002°38'10 9.7
2015-May-22 03:33N 51°25' E 002°53'1010.2
2015-May-22 02:33N 51°24' E 003°10'9 8.9
2015-May-22 01:33N 51°25' E 003°24'9 8.7
2015-May-22 00:33N 51°26' E 003°38'5 4.5
2015-May-21 23:30N 51°24' E 003°45'0 0.3
2015-May-21 22:33N 51°24' E 003°44'0 0.0
2015-May-21 21:33N 51°24' E 003°44'0 0.0
2015-May-21 20:33N 51°24' E 003°44'0 0.0
2015-May-21 19:33N 51°24' E 003°44'0 0.1
2015-May-21 18:30N 51°24' E 003°44'0 0.2
2015-May-21 17:30N 51°24' E 003°44'0 0.3
2015-May-21 16:33N 51°24' E 003°45'0 0.0
2015-May-21 15:33N 51°24' E 003°45'0 0.1
2015-May-21 14:33N 51°24' E 003°45'0 0.1
2015-May-21 13:33N 51°24' E 003°45'0 0.0
2015-May-21 12:33N 51°24' E 003°45'0 0.0
2015-May-21 11:33N 51°24' E 003°45'0 0.3
2015-May-21 10:30N 51°24' E 003°44'0 0.1
2015-May-21 09:33N 51°24' E 003°44'0 0.1
2015-May-21 08:33N 51°24' E 003°44'0 0.1
2015-May-21 07:30N 51°24' E 003°44'0 0.0
2015-May-21 06:33N 51°24' E 003°44'0 0.0
2015-May-21 05:33N 51°24' E 003°44'2 1.6
2015-May-21 04:33N 51°23' E 003°44'9 8.7
2015-May-21 03:34N 51°24' E 003°57'5 5.1
2015-May-21 02:33N 51°22' E 004°05'7 6.6
2015-May-21 01:33N 51°21' E 004°15'1 1.2
2015-May-21 00:32N 51°21' E 004°17'0 0.0
2015-May-20 23:33N 51°21' E 004°17'2 1.8
2015-May-20 22:33N 51°19' E 004°19'2 2.3
2015-May-20 21:33N 51°17' E 004°20'0 0.2
2015-May-20 20:26N 51°17' E 004°20'0 0.0
2015-May-20 19:32N 51°17' E 004°20'0 0.0
2015-May-20 18:32N 51°17' E 004°20'0 0.0
2015-May-20 17:29N 51°17' E 004°20'0 0.0
2015-May-20 16:32N 51°17' E 004°20'0 0.0
2015-May-20 15:32N 51°17' E 004°20'0 0.0
2015-May-20 14:29N 51°17' E 004°20'0 0.0
2015-May-20 13:32N 51°17' E 004°20'0 0.0
2015-May-20 12:32N 51°17' E 004°20'0 0.0
2015-May-20 11:32N 51°17' E 004°20'0 0.0
2015-May-20 10:32N 51°17' E 004°20'0 0.0
2015-May-20 09:32N 51°17' E 004°20'0 0.0
2015-May-20 08:32N 51°17' E 004°20'0 0.0
2015-May-20 07:29N 51°17' E 004°20'0 0.0
2015-May-20 06:32N 51°17' E 004°20'0 0.0
2015-May-20 05:29N 51°17' E 004°20'0 0.0
2015-May-20 04:32N 51°17' E 004°20'0 0.0
2015-May-20 03:29N 51°17' E 004°20'0 0.0
2015-May-20 02:29N 51°17' E 004°20'0 0.0
2015-May-20 01:32N 51°17' E 004°20'0 0.0
2015-May-20 00:32N 51°17' E 004°20'0 0.0
2015-May-19 23:29N 51°17' E 004°20'0 0.0
2015-May-19 22:32N 51°17' E 004°20'0 0.0
2015-May-19 21:29N 51°17' E 004°20'0 0.0
2015-May-19 20:32N 51°17' E 004°20'0 0.0
2015-May-19 19:29N 51°17' E 004°20'0 0.0
2015-May-19 18:32N 51°17' E 004°20'0 0.0
2015-May-19 17:32N 51°17' E 004°20'0 0.0
2015-May-19 16:32N 51°17' E 004°20'0 0.0
2015-May-19 15:32N 51°17' E 004°20'0 0.0
2015-May-19 14:32N 51°17' E 004°20'0 0.0
2015-May-19 13:32N 51°17' E 004°20'0 0.0
2015-May-19 12:32N 51°17' E 004°20'0 0.0
2015-May-19 11:32N 51°17' E 004°20'0 0.0
2015-May-19 10:32N 51°17' E 004°20'0 0.0
2015-May-19 09:32N 51°17' E 004°20'0 0.0
2015-May-19 08:29N 51°17' E 004°20'0 0.0
2015-May-19 07:29N 51°17' E 004°20'0 0.0
2015-May-19 06:32N 51°17' E 004°20'0 0.0
2015-May-19 05:32N 51°17' E 004°20'0 0.0
2015-May-19 04:29N 51°17' E 004°20'0 0.0
2015-May-19 03:32N 51°17' E 004°20'0 0.0
2015-May-19 02:32N 51°17' E 004°20'0 0.0
2015-May-19 01:32N 51°17' E 004°20'0 0.0
2015-May-19 00:32N 51°17' E 004°20'0 0.0
2015-May-18 23:32N 51°17' E 004°20'0 0.0
2015-May-18 22:32N 51°17' E 004°20'0 0.0
2015-May-18 21:32N 51°17' E 004°20'0 0.0
2015-May-18 20:32N 51°17' E 004°20'0 0.0
2015-May-18 19:32N 51°17' E 004°20'0 0.0
2015-May-18 18:29N 51°17' E 004°20'0 0.0
2015-May-18 17:32N 51°17' E 004°20'0 0.0
2015-May-18 16:29N 51°17' E 004°20'0 0.0
2015-May-18 15:32N 51°17' E 004°20'0 0.0
2015-May-18 14:29N 51°17' E 004°20'0 0.0
2015-May-18 13:32N 51°17' E 004°20'0 0.0
2015-May-18 12:32N 51°17' E 004°20'0 0.0
2015-May-18 11:29N 51°17' E 004°20'0 0.0
2015-May-18 10:32N 51°17' E 004°20'0 0.0
2015-May-18 09:32N 51°17' E 004°20'0 0.0
2015-May-18 08:29N 51°17' E 004°20'  
Track history (hours):
 
Tides and Currents Weather Stations Pressure Air Temp Water Temp Dewpoint Dewpoint Depression Visibility Wind Speed Wind Dir Waves Ship Positions

Alpine Persefone

Last reported at 2015-May-28 08:22 UTC. Time now 2015-May-30 00:25 UTC.
Position N 27°34' W 015°16'.

Length 226 m; draft 14 m.

Type: Tanker. MMSI: 636013411.

Date/timePositionNaut miles runAvg speedWind from/ knotsBaromVisibWave heightAir tempDewpointWater temp
2015-May-28 08:22N 27°34' W 015°16'1011.8
2015-May-28 07:33N 27°43' W 015°11'1211.7
2015-May-28 06:33N 27°53' W 015°06'1211.7
2015-May-28 05:33N 28°04' W 015°02'1212.0
2015-May-28 04:33N 28°16' W 014°57'1212.1
2015-May-28 03:33N 28°27' W 014°52'1212.0
2015-May-28 02:33N 28°39' W 014°49'  
2015-May-25 18:14N 39°21' W 011°47'3011.4
2015-May-25 15:33N 39°51' W 011°38'1211.6
2015-May-25 14:33N 40°02' W 011°35'  
2015-May-23 01:04N 49°59' W 002°53'610.9
2015-May-23 00:33N 50°01' W 002°44'1010.1
2015-May-22 23:31N 50°04' W 002°29'19 8.9
2015-May-22 21:26N 50°09' W 002°01'1110.0
2015-May-22 20:18N 50°12' W 001°44'1211.7
2015-May-22 19:18N 50°15' W 001°26'1213.3
2015-May-22 18:23N 50°18' W 001°08'1514.3
2015-May-22 17:20N 50°22' W 000°45'3612.8
2015-May-22 14:32N 50°32' E 000°09'1111.1
2015-May-22 13:33N 50°35' E 000°26'1010.1
2015-May-22 12:33N 50°39' E 000°40'1010.3
2015-May-22 11:33N 50°45' E 000°53'1511.7
2015-May-22 10:14N 50°55' E 001°12'913.6
2015-May-22 09:33N 51°02' E 001°22'1413.9
2015-May-22 08:33N 51°10' E 001°39'1212.4
2015-May-22 07:33N 51°19' E 001°53'9 9.0
2015-May-22 06:33N 51°23' E 002°06'1110.4
2015-May-22 05:32N 51°22' E 002°23'1010.0
2015-May-22 04:33N 51°23' E 002°38'10 9.7
2015-May-22 03:33N 51°25' E 002°53'1010.2
2015-May-22 02:33N 51°24' E 003°10'9 8.9
2015-May-22 01:33N 51°25' E 003°24'9 8.7
2015-May-22 00:33N 51°26' E 003°38'5 4.5
2015-May-21 23:30N 51°24' E 003°45'0 0.3
2015-May-21 22:33N 51°24' E 003°44'0 0.0
2015-May-21 21:33N 51°24' E 003°44'0 0.0
2015-May-21 20:33N 51°24' E 003°44'0 0.0
2015-May-21 19:33N 51°24' E 003°44'0 0.1
2015-May-21 18:30N 51°24' E 003°44'0 0.2
2015-May-21 17:30N 51°24' E 003°44'0 0.3
2015-May-21 16:33N 51°24' E 003°45'0 0.0
2015-May-21 15:33N 51°24' E 003°45'0 0.1
2015-May-21 14:33N 51°24' E 003°45'0 0.1
2015-May-21 13:33N 51°24' E 003°45'0 0.0
2015-May-21 12:33N 51°24' E 003°45'0 0.0
2015-May-21 11:33N 51°24' E 003°45'0 0.3
2015-May-21 10:30N 51°24' E 003°44'0 0.1
2015-May-21 09:33N 51°24' E 003°44'0 0.1
2015-May-21 08:33N 51°24' E 003°44'0 0.1
2015-May-21 07:30N 51°24' E 003°44'0 0.0
2015-May-21 06:33N 51°24' E 003°44'0 0.0
2015-May-21 05:33N 51°24' E 003°44'2 1.6
2015-May-21 04:33N 51°23' E 003°44'9 8.7
2015-May-21 03:34N 51°24' E 003°57'5 5.1
2015-May-21 02:33N 51°22' E 004°05'7 6.6
2015-May-21 01:33N 51°21' E 004°15'1 1.2
2015-May-21 00:32N 51°21' E 004°17'0 0.0
2015-May-20 23:33N 51°21' E 004°17'2 1.8
2015-May-20 22:33N 51°19' E 004°19'2 2.3
2015-May-20 21:33N 51°17' E 004°20'0 0.2
2015-May-20 20:26N 51°17' E 004°20'0 0.0
2015-May-20 19:32N 51°17' E 004°20'0 0.0
2015-May-20 18:32N 51°17' E 004°20'0 0.0
2015-May-20 17:29N 51°17' E 004°20'0 0.0
2015-May-20 16:32N 51°17' E 004°20'0 0.0
2015-May-20 15:32N 51°17' E 004°20'0 0.0
2015-May-20 14:29N 51°17' E 004°20'0 0.0
2015-May-20 13:32N 51°17' E 004°20'0 0.0
2015-May-20 12:32N 51°17' E 004°20'0 0.0
2015-May-20 11:32N 51°17' E 004°20'0 0.0
2015-May-20 10:32N 51°17' E 004°20'0 0.0
2015-May-20 09:32N 51°17' E 004°20'0 0.0
2015-May-20 08:32N 51°17' E 004°20'0 0.0
2015-May-20 07:29N 51°17' E 004°20'0 0.0
2015-May-20 06:32N 51°17' E 004°20'0 0.0
2015-May-20 05:29N 51°17' E 004°20'0 0.0
2015-May-20 04:32N 51°17' E 004°20'0 0.0
2015-May-20 03:29N 51°17' E 004°20'0 0.0
2015-May-20 02:29N 51°17' E 004°20'0 0.0
2015-May-20 01:32N 51°17' E 004°20'0 0.0
2015-May-20 00:32N 51°17' E 004°20'0 0.0
2015-May-19 23:29N 51°17' E 004°20'0 0.0
2015-May-19 22:32N 51°17' E 004°20'0 0.0
2015-May-19 21:29N 51°17' E 004°20'0 0.0
2015-May-19 20:32N 51°17' E 004°20'0 0.0
2015-May-19 19:29N 51°17' E 004°20'0 0.0
2015-May-19 18:32N 51°17' E 004°20'0 0.0
2015-May-19 17:32N 51°17' E 004°20'0 0.0
2015-May-19 16:32N 51°17' E 004°20'0 0.0
2015-May-19 15:32N 51°17' E 004°20'0 0.0
2015-May-19 14:32N 51°17' E 004°20'0 0.0
2015-May-19 13:32N 51°17' E 004°20'0 0.0
2015-May-19 12:32N 51°17' E 004°20'0 0.0
2015-May-19 11:32N 51°17' E 004°20'0 0.0
2015-May-19 10:32N 51°17' E 004°20'0 0.0
2015-May-19 09:32N 51°17' E 004°20'0 0.0
2015-May-19 08:29N 51°17' E 004°20'0 0.0
2015-May-19 07:29N 51°17' E 004°20'0 0.0
2015-May-19 06:32N 51°17' E 004°20'0 0.0
2015-May-19 05:32N 51°17' E 004°20'0 0.0
2015-May-19 04:29N 51°17' E 004°20'0 0.0
2015-May-19 03:32N 51°17' E 004°20'0 0.0
2015-May-19 02:32N 51°17' E 004°20'0 0.0
2015-May-19 01:32N 51°17' E 004°20'0 0.0
2015-May-19 00:32N 51°17' E 004°20'0 0.0
2015-May-18 23:32N 51°17' E 004°20'0 0.0
2015-May-18 22:32N 51°17' E 004°20'0 0.0
2015-May-18 21:32N 51°17' E 004°20'0 0.0
2015-May-18 20:32N 51°17' E 004°20'0 0.0
2015-May-18 19:32N 51°17' E 004°20'0 0.0
2015-May-18 18:29N 51°17' E 004°20'0 0.0
2015-May-18 17:32N 51°17' E 004°20'0 0.0
2015-May-18 16:29N 51°17' E 004°20'0 0.0
2015-May-18 15:32N 51°17' E 004°20'0 0.0
2015-May-18 14:29N 51°17' E 004°20'0 0.0
2015-May-18 13:32N 51°17' E 004°20'0 0.0
2015-May-18 12:32N 51°17' E 004°20'0 0.0
2015-May-18 11:29N 51°17' E 004°20'0 0.0
2015-May-18 10:32N 51°17' E 004°20'0 0.0
2015-May-18 09:32N 51°17' E 004°20'0 0.0
2015-May-18 08:29N 51°17' E 004°20'  

Dump ship's entire track history